sensor_id;sensor_type;location;lat;lon;timestamp;P1;durP1;ratioP1;P2;durP2;ratioP2
74042;SDS011;62384;53.600;10.040;2023-07-29T00:00:43;9.18;;;4.63;;
74042;SDS011;62384;53.600;10.040;2023-07-29T00:03:09;8.57;;;5.00;;
74042;SDS011;62384;53.600;10.040;2023-07-29T00:05:34;7.75;;;4.93;;
74042;SDS011;62384;53.600;10.040;2023-07-29T00:08:00;9.57;;;4.65;;
74042;SDS011;62384;53.600;10.040;2023-07-29T00:10:26;8.05;;;4.70;;
74042;SDS011;62384;53.600;10.040;2023-07-29T00:12:52;12.35;;;5.28;;
74042;SDS011;62384;53.600;10.040;2023-07-29T00:15:17;11.27;;;5.35;;
74042;SDS011;62384;53.600;10.040;2023-07-29T00:17:42;10.88;;;5.60;;
74042;SDS011;62384;53.600;10.040;2023-07-29T00:20:08;7.63;;;4.72;;
74042;SDS011;62384;53.600;10.040;2023-07-29T00:22:33;8.73;;;5.10;;
74042;SDS011;62384;53.600;10.040;2023-07-29T00:24:58;7.93;;;4.45;;
74042;SDS011;62384;53.600;10.040;2023-07-29T00:27:25;9.90;;;5.00;;
74042;SDS011;62384;53.600;10.040;2023-07-29T00:29:51;9.80;;;5.25;;
74042;SDS011;62384;53.600;10.040;2023-07-29T00:32:17;7.63;;;5.00;;
74042;SDS011;62384;53.600;10.040;2023-07-29T00:34:42;7.80;;;5.07;;
74042;SDS011;62384;53.600;10.040;2023-07-29T00:37:08;10.63;;;5.03;;
74042;SDS011;62384;53.600;10.040;2023-07-29T00:39:33;9.98;;;4.60;;
74042;SDS011;62384;53.600;10.040;2023-07-29T00:41:58;9.55;;;4.90;;
74042;SDS011;62384;53.600;10.040;2023-07-29T00:44:23;9.15;;;4.95;;
74042;SDS011;62384;53.600;10.040;2023-07-29T00:46:50;13.18;;;5.40;;
74042;SDS011;62384;53.600;10.040;2023-07-29T00:49:17;8.23;;;4.90;;
74042;SDS011;62384;53.600;10.040;2023-07-29T00:51:43;7.20;;;4.80;;
74042;SDS011;62384;53.600;10.040;2023-07-29T00:54:08;8.10;;;4.72;;
74042;SDS011;62384;53.600;10.040;2023-07-29T00:56:33;8.82;;;4.85;;
74042;SDS011;62384;53.600;10.040;2023-07-29T00:58:59;9.88;;;5.38;;
74042;SDS011;62384;53.600;10.040;2023-07-29T01:01:27;8.80;;;4.97;;
74042;SDS011;62384;53.600;10.040;2023-07-29T01:03:53;8.40;;;4.65;;
74042;SDS011;62384;53.600;10.040;2023-07-29T01:17:55;11.25;;;5.55;;
74042;SDS011;62384;53.600;10.040;2023-07-29T01:20:24;7.20;;;4.35;;
74042;SDS011;62384;53.600;10.040;2023-07-29T01:22:50;6.75;;;4.10;;
74042;SDS011;62384;53.600;10.040;2023-07-29T01:25:15;6.68;;;4.05;;
74042;SDS011;62384;53.600;10.040;2023-07-29T01:27:43;7.03;;;4.47;;
74042;SDS011;62384;53.600;10.040;2023-07-29T01:30:10;7.50;;;4.63;;
74042;SDS011;62384;53.600;10.040;2023-07-29T01:37:51;6.47;;;3.75;;
74042;SDS011;62384;53.600;10.040;2023-07-29T01:40:20;7.13;;;4.22;;
74042;SDS011;62384;53.600;10.040;2023-07-29T01:42:48;6.78;;;3.95;;
74042;SDS011;62384;53.600;10.040;2023-07-29T01:45:14;9.05;;;4.35;;
74042;SDS011;62384;53.600;10.040;2023-07-29T01:47:39;6.95;;;3.90;;
74042;SDS011;62384;53.600;10.040;2023-07-29T01:50:06;5.75;;;3.60;;
74042;SDS011;62384;53.600;10.040;2023-07-29T01:52:32;6.60;;;4.13;;
74042;SDS011;62384;53.600;10.040;2023-07-29T01:54:58;7.15;;;4.53;;
74042;SDS011;62384;53.600;10.040;2023-07-29T01:57:23;7.38;;;4.40;;
74042;SDS011;62384;53.600;10.040;2023-07-29T01:59:48;18.60;;;5.18;;
74042;SDS011;62384;53.600;10.040;2023-07-29T02:02:13;41.67;;;8.20;;
74042;SDS011;62384;53.600;10.040;2023-07-29T02:04:39;62.97;;;9.82;;
74042;SDS011;62384;53.600;10.040;2023-07-29T02:07:04;12.35;;;6.43;;
74042;SDS011;62384;53.600;10.040;2023-07-29T02:09:29;11.73;;;7.18;;
74042;SDS011;62384;53.600;10.040;2023-07-29T02:11:57;11.82;;;6.60;;
74042;SDS011;62384;53.600;10.040;2023-07-29T02:14:23;13.60;;;7.18;;
74042;SDS011;62384;53.600;10.040;2023-07-29T02:16:48;12.68;;;7.45;;
74042;SDS011;62384;53.600;10.040;2023-07-29T02:19:14;13.38;;;7.57;;
74042;SDS011;62384;53.600;10.040;2023-07-29T02:21:40;13.38;;;7.40;;
74042;SDS011;62384;53.600;10.040;2023-07-29T02:24:05;13.80;;;7.80;;
74042;SDS011;62384;53.600;10.040;2023-07-29T02:26:30;12.85;;;7.60;;
74042;SDS011;62384;53.600;10.040;2023-07-29T02:28:55;11.88;;;7.68;;
74042;SDS011;62384;53.600;10.040;2023-07-29T02:31:21;14.73;;;7.30;;
74042;SDS011;62384;53.600;10.040;2023-07-29T02:33:48;12.63;;;8.20;;
74042;SDS011;62384;53.600;10.040;2023-07-29T02:36:14;15.25;;;9.23;;
74042;SDS011;62384;53.600;10.040;2023-07-29T02:38:40;13.98;;;8.02;;
74042;SDS011;62384;53.600;10.040;2023-07-29T02:41:05;13.25;;;8.15;;
74042;SDS011;62384;53.600;10.040;2023-07-29T02:43:31;12.93;;;7.10;;
74042;SDS011;62384;53.600;10.040;2023-07-29T02:45:56;11.63;;;8.20;;
74042;SDS011;62384;53.600;10.040;2023-07-29T02:48:22;12.65;;;8.13;;
74042;SDS011;62384;53.600;10.040;2023-07-29T02:50:47;11.50;;;7.20;;
74042;SDS011;62384;53.600;10.040;2023-07-29T02:53:12;14.40;;;7.95;;
74042;SDS011;62384;53.600;10.040;2023-07-29T02:55:41;15.30;;;8.45;;
74042;SDS011;62384;53.600;10.040;2023-07-29T02:58:06;14.35;;;7.93;;
74042;SDS011;62384;53.600;10.040;2023-07-29T03:00:32;12.52;;;7.65;;
74042;SDS011;62384;53.600;10.040;2023-07-29T03:02:58;14.88;;;8.35;;
74042;SDS011;62384;53.600;10.040;2023-07-29T03:05:23;13.63;;;8.18;;
74042;SDS011;62384;53.600;10.040;2023-07-29T03:07:48;14.23;;;8.00;;
74042;SDS011;62384;53.600;10.040;2023-07-29T03:10:13;14.57;;;8.63;;
74042;SDS011;62384;53.600;10.040;2023-07-29T03:12:40;13.77;;;8.23;;
74042;SDS011;62384;53.600;10.040;2023-07-29T03:15:05;14.15;;;8.38;;
74042;SDS011;62384;53.600;10.040;2023-07-29T03:17:31;13.38;;;7.32;;
74042;SDS011;62384;53.600;10.040;2023-07-29T03:19:56;14.10;;;8.60;;
74042;SDS011;62384;53.600;10.040;2023-07-29T03:22:22;12.80;;;8.05;;
74042;SDS011;62384;53.600;10.040;2023-07-29T03:24:47;13.75;;;8.38;;
74042;SDS011;62384;53.600;10.040;2023-07-29T03:27:12;15.90;;;8.95;;
74042;SDS011;62384;53.600;10.040;2023-07-29T03:29:38;14.13;;;8.55;;
74042;SDS011;62384;53.600;10.040;2023-07-29T03:32:03;12.85;;;8.18;;
74042;SDS011;62384;53.600;10.040;2023-07-29T03:34:29;13.60;;;8.25;;
74042;SDS011;62384;53.600;10.040;2023-07-29T03:36:54;15.38;;;8.63;;
74042;SDS011;62384;53.600;10.040;2023-07-29T03:39:20;14.38;;;9.05;;
74042;SDS011;62384;53.600;10.040;2023-07-29T03:41:45;14.65;;;9.07;;
74042;SDS011;62384;53.600;10.040;2023-07-29T03:44:10;15.95;;;8.70;;
74042;SDS011;62384;53.600;10.040;2023-07-29T03:46:35;14.32;;;8.85;;
74042;SDS011;62384;53.600;10.040;2023-07-29T03:49:01;14.90;;;8.30;;
74042;SDS011;62384;53.600;10.040;2023-07-29T03:51:26;17.83;;;10.63;;
74042;SDS011;62384;53.600;10.040;2023-07-29T03:53:51;16.23;;;9.50;;
74042;SDS011;62384;53.600;10.040;2023-07-29T03:56:17;21.30;;;10.73;;
74042;SDS011;62384;53.600;10.040;2023-07-29T03:58:42;18.80;;;9.82;;
74042;SDS011;62384;53.600;10.040;2023-07-29T04:01:08;20.08;;;11.32;;
74042;SDS011;62384;53.600;10.040;2023-07-29T04:03:34;18.38;;;10.68;;
74042;SDS011;62384;53.600;10.040;2023-07-29T04:05:59;20.05;;;10.20;;
74042;SDS011;62384;53.600;10.040;2023-07-29T04:08:25;19.02;;;11.02;;
74042;SDS011;62384;53.600;10.040;2023-07-29T04:10:50;24.88;;;11.98;;
74042;SDS011;62384;53.600;10.040;2023-07-29T04:13:16;22.20;;;11.57;;
74042;SDS011;62384;53.600;10.040;2023-07-29T04:15:41;19.00;;;10.88;;
74042;SDS011;62384;53.600;10.040;2023-07-29T04:18:06;19.63;;;11.15;;
74042;SDS011;62384;53.600;10.040;2023-07-29T04:20:33;21.63;;;11.57;;
74042;SDS011;62384;53.600;10.040;2023-07-29T04:22:58;24.42;;;12.50;;
74042;SDS011;62384;53.600;10.040;2023-07-29T04:25:24;25.55;;;13.70;;
74042;SDS011;62384;53.600;10.040;2023-07-29T04:27:49;23.40;;;13.18;;
74042;SDS011;62384;53.600;10.040;2023-07-29T04:30:14;25.00;;;13.23;;
74042;SDS011;62384;53.600;10.040;2023-07-29T04:32:40;22.50;;;13.13;;
74042;SDS011;62384;53.600;10.040;2023-07-29T04:35:07;23.95;;;12.95;;
74042;SDS011;62384;53.600;10.040;2023-07-29T04:37:33;27.65;;;12.98;;
74042;SDS011;62384;53.600;10.040;2023-07-29T04:39:58;31.02;;;13.15;;
74042;SDS011;62384;53.600;10.040;2023-07-29T04:42:23;27.63;;;14.60;;
74042;SDS011;62384;53.600;10.040;2023-07-29T04:44:48;26.70;;;15.13;;
74042;SDS011;62384;53.600;10.040;2023-07-29T04:47:14;47.85;;;20.20;;
74042;SDS011;62384;53.600;10.040;2023-07-29T04:49:39;52.70;;;22.55;;
74042;SDS011;62384;53.600;10.040;2023-07-29T04:52:05;54.72;;;21.70;;
74042;SDS011;62384;53.600;10.040;2023-07-29T04:54:30;56.25;;;21.60;;
74042;SDS011;62384;53.600;10.040;2023-07-29T04:56:55;53.72;;;22.65;;
74042;SDS011;62384;53.600;10.040;2023-07-29T04:59:21;55.97;;;22.05;;
74042;SDS011;62384;53.600;10.040;2023-07-29T05:01:46;45.38;;;21.52;;
74042;SDS011;62384;53.600;10.040;2023-07-29T05:04:12;46.08;;;20.20;;
74042;SDS011;62384;53.600;10.040;2023-07-29T05:06:39;46.67;;;21.92;;
74042;SDS011;62384;53.600;10.040;2023-07-29T05:09:15;49.53;;;20.95;;
74042;SDS011;62384;53.600;10.040;2023-07-29T05:11:44;46.95;;;20.80;;
74042;SDS011;62384;53.600;10.040;2023-07-29T05:14:10;42.65;;;19.63;;
74042;SDS011;62384;53.600;10.040;2023-07-29T05:16:36;43.50;;;20.33;;
74042;SDS011;62384;53.600;10.040;2023-07-29T05:19:01;38.97;;;18.20;;
74042;SDS011;62384;53.600;10.040;2023-07-29T05:21:27;38.15;;;18.27;;
74042;SDS011;62384;53.600;10.040;2023-07-29T05:23:52;45.03;;;18.40;;
74042;SDS011;62384;53.600;10.040;2023-07-29T05:26:17;42.45;;;19.40;;
74042;SDS011;62384;53.600;10.040;2023-07-29T05:28:42;38.13;;;17.88;;
74042;SDS011;62384;53.600;10.040;2023-07-29T05:31:09;39.55;;;17.92;;
74042;SDS011;62384;53.600;10.040;2023-07-29T05:33:34;38.70;;;17.25;;
74042;SDS011;62384;53.600;10.040;2023-07-29T05:36:01;38.20;;;17.45;;
74042;SDS011;62384;53.600;10.040;2023-07-29T05:38:26;40.80;;;18.40;;
74042;SDS011;62384;53.600;10.040;2023-07-29T05:40:51;35.00;;;17.05;;
74042;SDS011;62384;53.600;10.040;2023-07-29T05:43:16;34.40;;;16.80;;
74042;SDS011;62384;53.600;10.040;2023-07-29T05:45:42;37.83;;;17.60;;
74042;SDS011;62384;53.600;10.040;2023-07-29T05:48:07;35.67;;;17.20;;
74042;SDS011;62384;53.600;10.040;2023-07-29T05:50:32;34.08;;;15.43;;
74042;SDS011;62384;53.600;10.040;2023-07-29T05:52:58;32.42;;;15.40;;
74042;SDS011;62384;53.600;10.040;2023-07-29T05:55:23;35.00;;;17.52;;
74042;SDS011;62384;53.600;10.040;2023-07-29T05:57:48;31.15;;;15.32;;
74042;SDS011;62384;53.600;10.040;2023-07-29T06:00:13;34.10;;;17.08;;
74042;SDS011;62384;53.600;10.040;2023-07-29T06:02:39;31.48;;;16.90;;
74042;SDS011;62384;53.600;10.040;2023-07-29T06:05:06;32.25;;;17.50;;
74042;SDS011;62384;53.600;10.040;2023-07-29T06:07:32;32.40;;;17.35;;
74042;SDS011;62384;53.600;10.040;2023-07-29T06:09:58;35.15;;;16.90;;
74042;SDS011;62384;53.600;10.040;2023-07-29T06:12:26;36.53;;;17.27;;
74042;SDS011;62384;53.600;10.040;2023-07-29T06:14:52;37.00;;;18.58;;
74042;SDS011;62384;53.600;10.040;2023-07-29T06:17:17;36.70;;;18.27;;
74042;SDS011;62384;53.600;10.040;2023-07-29T06:19:42;37.30;;;18.45;;
74042;SDS011;62384;53.600;10.040;2023-07-29T06:22:09;33.58;;;17.38;;
74042;SDS011;62384;53.600;10.040;2023-07-29T06:24:34;34.90;;;18.60;;
74042;SDS011;62384;53.600;10.040;2023-07-29T06:27:00;39.58;;;19.40;;
74042;SDS011;62384;53.600;10.040;2023-07-29T06:29:25;42.00;;;20.98;;
74042;SDS011;62384;53.600;10.040;2023-07-29T06:31:51;39.45;;;19.77;;
74042;SDS011;62384;53.600;10.040;2023-07-29T06:34:16;35.47;;;19.48;;
74042;SDS011;62384;53.600;10.040;2023-07-29T06:36:42;35.95;;;19.15;;
74042;SDS011;62384;53.600;10.040;2023-07-29T06:39:07;37.40;;;19.27;;
74042;SDS011;62384;53.600;10.040;2023-07-29T06:41:32;33.95;;;18.00;;
74042;SDS011;62384;53.600;10.040;2023-07-29T06:43:57;32.35;;;18.15;;
74042;SDS011;62384;53.600;10.040;2023-07-29T06:46:23;34.65;;;18.88;;
74042;SDS011;62384;53.600;10.040;2023-07-29T06:48:48;32.58;;;18.02;;
74042;SDS011;62384;53.600;10.040;2023-07-29T06:51:13;33.45;;;17.42;;
74042;SDS011;62384;53.600;10.040;2023-07-29T06:53:38;31.88;;;17.45;;
74042;SDS011;62384;53.600;10.040;2023-07-29T06:56:04;32.40;;;16.25;;
74042;SDS011;62384;53.600;10.040;2023-07-29T06:58:32;25.98;;;14.13;;
74042;SDS011;62384;53.600;10.040;2023-07-29T07:00:58;28.77;;;14.23;;
74042;SDS011;62384;53.600;10.040;2023-07-29T07:03:23;24.73;;;13.13;;
74042;SDS011;62384;53.600;10.040;2023-07-29T07:05:48;25.85;;;13.68;;
74042;SDS011;62384;53.600;10.040;2023-07-29T07:08:13;27.15;;;14.10;;
74042;SDS011;62384;53.600;10.040;2023-07-29T07:10:39;29.17;;;13.82;;
74042;SDS011;62384;53.600;10.040;2023-07-29T07:13:04;24.23;;;12.60;;
74042;SDS011;62384;53.600;10.040;2023-07-29T07:15:29;24.92;;;14.00;;
74042;SDS011;62384;53.600;10.040;2023-07-29T07:17:55;26.38;;;14.60;;
74042;SDS011;62384;53.600;10.040;2023-07-29T07:20:22;31.65;;;14.57;;
74042;SDS011;62384;53.600;10.040;2023-07-29T07:22:48;26.73;;;14.18;;
74042;SDS011;62384;53.600;10.040;2023-07-29T07:25:13;24.10;;;13.63;;
74042;SDS011;62384;53.600;10.040;2023-07-29T07:27:38;26.20;;;13.13;;
74042;SDS011;62384;53.600;10.040;2023-07-29T07:30:04;24.85;;;13.15;;
74042;SDS011;62384;53.600;10.040;2023-07-29T07:32:29;27.17;;;12.93;;
74042;SDS011;62384;53.600;10.040;2023-07-29T07:34:55;28.38;;;13.88;;
74042;SDS011;62384;53.600;10.040;2023-07-29T07:37:20;26.48;;;13.57;;
74042;SDS011;62384;53.600;10.040;2023-07-29T07:39:45;23.38;;;12.70;;
74042;SDS011;62384;53.600;10.040;2023-07-29T07:42:11;24.95;;;13.38;;
74042;SDS011;62384;53.600;10.040;2023-07-29T07:44:36;25.30;;;14.07;;
74042;SDS011;62384;53.600;10.040;2023-07-29T07:47:01;30.73;;;15.57;;
74042;SDS011;62384;53.600;10.040;2023-07-29T07:49:26;28.92;;;14.77;;
74042;SDS011;62384;53.600;10.040;2023-07-29T07:51:52;27.45;;;14.48;;
74042;SDS011;62384;53.600;10.040;2023-07-29T07:54:17;24.92;;;14.05;;
74042;SDS011;62384;53.600;10.040;2023-07-29T07:56:43;30.35;;;13.95;;
74042;SDS011;62384;53.600;10.040;2023-07-29T07:59:08;26.40;;;14.52;;
74042;SDS011;62384;53.600;10.040;2023-07-29T08:01:39;29.38;;;14.65;;
74042;SDS011;62384;53.600;10.040;2023-07-29T08:04:05;27.25;;;14.32;;
74042;SDS011;62384;53.600;10.040;2023-07-29T08:06:31;28.45;;;14.32;;
74042;SDS011;62384;53.600;10.040;2023-07-29T08:08:57;31.27;;;13.90;;
74042;SDS011;62384;53.600;10.040;2023-07-29T08:11:23;31.67;;;14.68;;
74042;SDS011;62384;53.600;10.040;2023-07-29T08:13:49;33.97;;;15.35;;
74042;SDS011;62384;53.600;10.040;2023-07-29T08:16:14;28.90;;;14.68;;
74042;SDS011;62384;53.600;10.040;2023-07-29T08:18:39;28.33;;;14.20;;
74042;SDS011;62384;53.600;10.040;2023-07-29T08:21:05;28.02;;;14.45;;
74042;SDS011;62384;53.600;10.040;2023-07-29T08:23:30;32.30;;;13.55;;
74042;SDS011;62384;53.600;10.040;2023-07-29T08:25:57;26.65;;;13.73;;
74042;SDS011;62384;53.600;10.040;2023-07-29T08:28:34;54.33;;;16.35;;
74042;SDS011;62384;53.600;10.040;2023-07-29T08:31:01;41.65;;;16.13;;
74042;SDS011;62384;53.600;10.040;2023-07-29T08:33:29;53.20;;;16.30;;
74042;SDS011;62384;53.600;10.040;2023-07-29T08:35:55;31.85;;;14.95;;
74042;SDS011;62384;53.600;10.040;2023-07-29T08:38:20;27.90;;;15.70;;
74042;SDS011;62384;53.600;10.040;2023-07-29T08:40:49;30.05;;;13.90;;
74042;SDS011;62384;53.600;10.040;2023-07-29T08:43:19;30.83;;;15.18;;
74042;SDS011;62384;53.600;10.040;2023-07-29T08:45:47;29.13;;;14.10;;
74042;SDS011;62384;53.600;10.040;2023-07-29T08:48:15;23.83;;;12.88;;
74042;SDS011;62384;53.600;10.040;2023-07-29T08:50:44;34.08;;;13.57;;
74042;SDS011;62384;53.600;10.040;2023-07-29T08:53:10;25.95;;;14.30;;
74042;SDS011;62384;53.600;10.040;2023-07-29T08:55:35;25.55;;;14.13;;
74042;SDS011;62384;53.600;10.040;2023-07-29T08:58:01;25.70;;;13.35;;
74042;SDS011;62384;53.600;10.040;2023-07-29T09:00:27;23.90;;;13.05;;
74042;SDS011;62384;53.600;10.040;2023-07-29T09:02:53;23.13;;;12.70;;
74042;SDS011;62384;53.600;10.040;2023-07-29T09:05:20;24.05;;;13.13;;
74042;SDS011;62384;53.600;10.040;2023-07-29T09:07:46;25.02;;;12.93;;
74042;SDS011;62384;53.600;10.040;2023-07-29T09:10:13;66.00;;;15.80;;
74042;SDS011;62384;53.600;10.040;2023-07-29T09:12:40;32.67;;;14.77;;
74042;SDS011;62384;53.600;10.040;2023-07-29T09:15:07;46.50;;;14.20;;
74042;SDS011;62384;53.600;10.040;2023-07-29T09:17:33;23.20;;;12.35;;
74042;SDS011;62384;53.600;10.040;2023-07-29T09:19:58;20.60;;;11.77;;
74042;SDS011;62384;53.600;10.040;2023-07-29T09:22:24;23.00;;;11.52;;
74042;SDS011;62384;53.600;10.040;2023-07-29T09:24:51;29.90;;;11.88;;
74042;SDS011;62384;53.600;10.040;2023-07-29T09:27:23;24.65;;;12.38;;
74042;SDS011;62384;53.600;10.040;2023-07-29T09:29:52;21.27;;;11.80;;
74042;SDS011;62384;53.600;10.040;2023-07-29T09:32:19;25.48;;;11.70;;
74042;SDS011;62384;53.600;10.040;2023-07-29T09:34:46;23.85;;;11.07;;
74042;SDS011;62384;53.600;10.040;2023-07-29T09:37:15;21.88;;;11.60;;
74042;SDS011;62384;53.600;10.040;2023-07-29T09:39:43;22.00;;;10.38;;
74042;SDS011;62384;53.600;10.040;2023-07-29T09:42:11;17.23;;;10.25;;
74042;SDS011;62384;53.600;10.040;2023-07-29T09:44:42;15.40;;;9.15;;
74042;SDS011;62384;53.600;10.040;2023-07-29T09:47:07;19.33;;;10.02;;
74042;SDS011;62384;53.600;10.040;2023-07-29T09:49:34;17.42;;;9.13;;
74042;SDS011;62384;53.600;10.040;2023-07-29T09:52:01;15.30;;;8.45;;
74042;SDS011;62384;53.600;10.040;2023-07-29T09:54:29;15.43;;;9.13;;
74042;SDS011;62384;53.600;10.040;2023-07-29T09:56:55;19.00;;;8.98;;
74042;SDS011;62384;53.600;10.040;2023-07-29T09:59:23;14.25;;;8.95;;
74042;SDS011;62384;53.600;10.040;2023-07-29T10:01:48;13.25;;;7.78;;
74042;SDS011;62384;53.600;10.040;2023-07-29T10:04:14;12.30;;;7.68;;
74042;SDS011;62384;53.600;10.040;2023-07-29T10:06:41;11.77;;;6.68;;
74042;SDS011;62384;53.600;10.040;2023-07-29T10:09:07;11.15;;;5.93;;
74042;SDS011;62384;53.600;10.040;2023-07-29T10:11:35;10.98;;;5.53;;
74042;SDS011;62384;53.600;10.040;2023-07-29T10:14:01;7.40;;;5.25;;
74042;SDS011;62384;53.600;10.040;2023-07-29T10:16:26;7.72;;;4.10;;
74042;SDS011;62384;53.600;10.040;2023-07-29T10:18:52;10.07;;;4.38;;
74042;SDS011;62384;53.600;10.040;2023-07-29T10:21:18;8.30;;;4.25;;
74042;SDS011;62384;53.600;10.040;2023-07-29T10:23:47;5.43;;;3.53;;
74042;SDS011;62384;53.600;10.040;2023-07-29T10:26:14;5.90;;;3.85;;
74042;SDS011;62384;53.600;10.040;2023-07-29T10:28:46;6.07;;;3.30;;
74042;SDS011;62384;53.600;10.040;2023-07-29T10:31:13;8.38;;;3.65;;
74042;SDS011;62384;53.600;10.040;2023-07-29T10:33:41;5.45;;;3.15;;
74042;SDS011;62384;53.600;10.040;2023-07-29T10:36:07;6.28;;;4.15;;
74042;SDS011;62384;53.600;10.040;2023-07-29T10:38:33;4.50;;;3.40;;
74042;SDS011;62384;53.600;10.040;2023-07-29T10:40:59;46.78;;;5.13;;
74042;SDS011;62384;53.600;10.040;2023-07-29T10:43:32;7.70;;;3.30;;
74042;SDS011;62384;53.600;10.040;2023-07-29T10:46:18;6.47;;;3.75;;
74042;SDS011;62384;53.600;10.040;2023-07-29T10:53:52;5.93;;;3.60;;
74042;SDS011;62384;53.600;10.040;2023-07-29T10:56:29;5.45;;;3.72;;
74042;SDS011;62384;53.600;10.040;2023-07-29T10:59:02;7.72;;;3.92;;
74042;SDS011;62384;53.600;10.040;2023-07-29T11:01:51;10.18;;;3.90;;
74042;SDS011;62384;53.600;10.040;2023-07-29T11:07:24;15.45;;;4.13;;
74042;SDS011;62384;53.600;10.040;2023-07-29T11:22:53;4.63;;;3.25;;
74042;SDS011;62384;53.600;10.040;2023-07-29T11:25:20;8.50;;;3.67;;
74042;SDS011;62384;53.600;10.040;2023-07-29T11:27:46;6.75;;;2.95;;
74042;SDS011;62384;53.600;10.040;2023-07-29T11:30:15;5.07;;;2.67;;
74042;SDS011;62384;53.600;10.040;2023-07-29T11:32:42;8.63;;;3.00;;
74042;SDS011;62384;53.600;10.040;2023-07-29T11:35:09;3.78;;;2.42;;
74042;SDS011;62384;53.600;10.040;2023-07-29T11:37:36;5.47;;;2.42;;
74042;SDS011;62384;53.600;10.040;2023-07-29T11:40:02;8.00;;;2.25;;
74042;SDS011;62384;53.600;10.040;2023-07-29T11:42:31;4.57;;;1.83;;
74042;SDS011;62384;53.600;10.040;2023-07-29T11:44:59;4.35;;;1.88;;
74042;SDS011;62384;53.600;10.040;2023-07-29T11:47:27;7.75;;;1.95;;
74042;SDS011;62384;53.600;10.040;2023-07-29T11:49:53;14.02;;;2.55;;
74042;SDS011;62384;53.600;10.040;2023-07-29T11:52:18;3.35;;;1.70;;
74042;SDS011;62384;53.600;10.040;2023-07-29T11:54:46;2.65;;;1.77;;
74042;SDS011;62384;53.600;10.040;2023-07-29T11:57:13;11.20;;;2.00;;
74042;SDS011;62384;53.600;10.040;2023-07-29T11:59:39;2.17;;;1.50;;
74042;SDS011;62384;53.600;10.040;2023-07-29T12:02:11;2.40;;;1.50;;
74042;SDS011;62384;53.600;10.040;2023-07-29T12:04:39;4.63;;;2.00;;
74042;SDS011;62384;53.600;10.040;2023-07-29T12:07:06;2.55;;;1.92;;
74042;SDS011;62384;53.600;10.040;2023-07-29T12:09:31;5.72;;;1.88;;
74042;SDS011;62384;53.600;10.040;2023-07-29T12:11:57;6.82;;;1.85;;
74042;SDS011;62384;53.600;10.040;2023-07-29T12:14:25;6.07;;;1.92;;
74042;SDS011;62384;53.600;10.040;2023-07-29T12:16:53;7.72;;;2.15;;
74042;SDS011;62384;53.600;10.040;2023-07-29T12:19:19;4.70;;;1.85;;
74042;SDS011;62384;53.600;10.040;2023-07-29T12:21:46;2.35;;;1.75;;
74042;SDS011;62384;53.600;10.040;2023-07-29T12:24:12;2.10;;;1.35;;
74042;SDS011;62384;53.600;10.040;2023-07-29T12:26:38;1.88;;;1.33;;
74042;SDS011;62384;53.600;10.040;2023-07-29T12:31:38;2.17;;;1.50;;
74042;SDS011;62384;53.600;10.040;2023-07-29T12:34:03;1.73;;;1.15;;
74042;SDS011;62384;53.600;10.040;2023-07-29T12:36:45;2.55;;;1.30;;
74042;SDS011;62384;53.600;10.040;2023-07-29T12:39:22;2.00;;;1.33;;
74042;SDS011;62384;53.600;10.040;2023-07-29T12:41:49;3.47;;;1.48;;
74042;SDS011;62384;53.600;10.040;2023-07-29T12:44:16;1.40;;;1.30;;
74042;SDS011;62384;53.600;10.040;2023-07-29T12:46:42;2.03;;;1.13;;
74042;SDS011;62384;53.600;10.040;2023-07-29T12:49:08;2.05;;;1.30;;
74042;SDS011;62384;53.600;10.040;2023-07-29T12:51:33;1.70;;;1.10;;
74042;SDS011;62384;53.600;10.040;2023-07-29T12:53:59;1.25;;;1.00;;
74042;SDS011;62384;53.600;10.040;2023-07-29T12:56:25;2.75;;;1.30;;
74042;SDS011;62384;53.600;10.040;2023-07-29T12:58:50;1.67;;;0.93;;
74042;SDS011;62384;53.600;10.040;2023-07-29T13:01:15;1.63;;;1.20;;
74042;SDS011;62384;53.600;10.040;2023-07-29T13:03:45;1.20;;;1.10;;
74042;SDS011;62384;53.600;10.040;2023-07-29T13:06:11;2.00;;;1.23;;
74042;SDS011;62384;53.600;10.040;2023-07-29T13:08:36;3.42;;;1.17;;
74042;SDS011;62384;53.600;10.040;2023-07-29T13:11:02;2.33;;;1.27;;
74042;SDS011;62384;53.600;10.040;2023-07-29T13:13:28;1.40;;;1.10;;
74042;SDS011;62384;53.600;10.040;2023-07-29T13:15:53;2.03;;;1.30;;
74042;SDS011;62384;53.600;10.040;2023-07-29T13:18:19;3.05;;;1.05;;
74042;SDS011;62384;53.600;10.040;2023-07-29T13:20:44;2.50;;;1.30;;
74042;SDS011;62384;53.600;10.040;2023-07-29T13:23:10;1.98;;;1.45;;
74042;SDS011;62384;53.600;10.040;2023-07-29T13:25:35;2.45;;;1.20;;
74042;SDS011;62384;53.600;10.040;2023-07-29T13:28:00;1.38;;;1.10;;
74042;SDS011;62384;53.600;10.040;2023-07-29T13:30:25;1.88;;;1.08;;
74042;SDS011;62384;53.600;10.040;2023-07-29T13:32:51;2.20;;;1.48;;
74042;SDS011;62384;53.600;10.040;2023-07-29T13:35:16;2.60;;;1.42;;
74042;SDS011;62384;53.600;10.040;2023-07-29T13:37:41;3.08;;;1.35;;
74042;SDS011;62384;53.600;10.040;2023-07-29T13:40:07;2.42;;;0.90;;
74042;SDS011;62384;53.600;10.040;2023-07-29T13:42:32;1.73;;;1.38;;
74042;SDS011;62384;53.600;10.040;2023-07-29T13:44:57;1.60;;;1.20;;
74042;SDS011;62384;53.600;10.040;2023-07-29T13:47:23;3.28;;;1.15;;
74042;SDS011;62384;53.600;10.040;2023-07-29T13:49:48;1.60;;;1.20;;
74042;SDS011;62384;53.600;10.040;2023-07-29T13:52:13;1.70;;;1.15;;
74042;SDS011;62384;53.600;10.040;2023-07-29T13:54:39;2.08;;;1.30;;
74042;SDS011;62384;53.600;10.040;2023-07-29T13:57:05;5.07;;;1.38;;
74042;SDS011;62384;53.600;10.040;2023-07-29T13:59:31;2.92;;;1.10;;
74042;SDS011;62384;53.600;10.040;2023-07-29T14:01:57;4.38;;;1.25;;
74042;SDS011;62384;53.600;10.040;2023-07-29T14:04:22;2.42;;;1.75;;
74042;SDS011;62384;53.600;10.040;2023-07-29T14:06:47;2.75;;;1.30;;
74042;SDS011;62384;53.600;10.040;2023-07-29T14:09:13;3.85;;;1.83;;
74042;SDS011;62384;53.600;10.040;2023-07-29T14:11:38;2.60;;;1.45;;
74042;SDS011;62384;53.600;10.040;2023-07-29T14:14:03;1.85;;;1.17;;
74042;SDS011;62384;53.600;10.040;2023-07-29T14:16:30;2.55;;;1.30;;
74042;SDS011;62384;53.600;10.040;2023-07-29T14:18:55;2.65;;;1.38;;
74042;SDS011;62384;53.600;10.040;2023-07-29T14:21:20;3.17;;;1.67;;
74042;SDS011;62384;53.600;10.040;2023-07-29T14:23:45;1.98;;;1.60;;
74042;SDS011;62384;53.600;10.040;2023-07-29T14:26:11;2.17;;;1.50;;
74042;SDS011;62384;53.600;10.040;2023-07-29T14:28:36;2.40;;;1.88;;
74042;SDS011;62384;53.600;10.040;2023-07-29T14:31:02;1.70;;;1.30;;
74042;SDS011;62384;53.600;10.040;2023-07-29T14:33:34;5.93;;;1.45;;
74042;SDS011;62384;53.600;10.040;2023-07-29T14:35:59;1.58;;;1.40;;
74042;SDS011;62384;53.600;10.040;2023-07-29T14:38:25;1.92;;;1.02;;
74042;SDS011;62384;53.600;10.040;2023-07-29T14:40:51;1.27;;;1.08;;
74042;SDS011;62384;53.600;10.040;2023-07-29T14:43:19;2.20;;;1.40;;
74042;SDS011;62384;53.600;10.040;2023-07-29T14:45:44;3.47;;;1.30;;
74042;SDS011;62384;53.600;10.040;2023-07-29T14:48:09;4.88;;;1.30;;
74042;SDS011;62384;53.600;10.040;2023-07-29T14:50:36;2.65;;;1.50;;
74042;SDS011;62384;53.600;10.040;2023-07-29T14:53:01;1.42;;;1.20;;
74042;SDS011;62384;53.600;10.040;2023-07-29T14:55:26;2.50;;;1.35;;